sensor_id;sensor_type;location;lat;lon;timestamp;pressure;altitude;pressure_sealevel;temperature;humidity
46199;BME280;31928;52.104;10.030;2022-12-20T00:00:50;100664.38;;;10.71;53.04
46199;BME280;31928;52.104;10.030;2022-12-20T00:03:16;100648.09;;;10.73;52.94
46199;BME280;31928;52.104;10.030;2022-12-20T00:05:43;100648.09;;;10.73;52.67
46199;BME280;31928;52.104;10.030;2022-12-20T00:08:10;100647.66;;;10.76;52.66
46199;BME280;31928;52.104;10.030;2022-12-20T00:10:40;100651.19;;;10.76;52.72
46199;BME280;31928;52.104;10.030;2022-12-20T00:13:07;100636.72;;;10.77;52.67
46199;BME280;31928;52.104;10.030;2022-12-20T00:15:34;100621.47;;;10.77;52.80
46199;BME280;31928;52.104;10.030;2022-12-20T00:18:01;100639.22;;;10.78;52.79
46199;BME280;31928;52.104;10.030;2022-12-20T00:20:27;100633.84;;;10.78;52.75
46199;BME280;31928;52.104;10.030;2022-12-20T00:22:54;100632.19;;;10.77;52.89
46199;BME280;31928;52.104;10.030;2022-12-20T00:25:21;100640.03;;;10.79;52.76
46199;BME280;31928;52.104;10.030;2022-12-20T00:27:47;100622.28;;;10.78;52.79
46199;BME280;31928;52.104;10.030;2022-12-20T00:30:14;100630.13;;;10.79;52.57
46199;BME280;31928;52.104;10.030;2022-12-20T00:32:41;100640.84;;;10.79;52.58
46199;BME280;31928;52.104;10.030;2022-12-20T00:35:09;100631.78;;;10.80;52.73
46199;BME280;31928;52.104;10.030;2022-12-20T00:37:35;100632.81;;;10.79;52.88
46199;BME280;31928;52.104;10.030;2022-12-20T00:40:03;100630.97;;;10.80;52.72
46199;BME280;31928;52.104;10.030;2022-12-20T00:42:29;100633.44;;;10.81;52.91
46199;BME280;31928;52.104;10.030;2022-12-20T00:44:56;100622.72;;;10.81;52.63
46199;BME280;31928;52.104;10.030;2022-12-20T00:47:22;100626.41;;;10.80;52.66
46199;BME280;31928;52.104;10.030;2022-12-20T00:49:49;100627.03;;;10.82;52.69
46199;BME280;31928;52.104;10.030;2022-12-20T00:52:15;100627.84;;;10.83;52.92
46199;BME280;31928;52.104;10.030;2022-12-20T00:54:41;100633.22;;;10.83;52.85
46199;BME280;31928;52.104;10.030;2022-12-20T00:57:08;100629.72;;;10.82;52.90
46199;BME280;31928;52.104;10.030;2022-12-20T00:59:34;100628.66;;;10.83;52.94
46199;BME280;31928;52.104;10.030;2022-12-20T01:02:01;100619.00;;;10.82;52.74
46199;BME280;31928;52.104;10.030;2022-12-20T01:04:27;100619.81;;;10.83;52.71
46199;BME280;31928;52.104;10.030;2022-12-20T01:06:54;100618.78;;;10.84;52.69
46199;BME280;31928;52.104;10.030;2022-12-20T01:09:20;100618.56;;;10.85;52.80
46199;BME280;31928;52.104;10.030;2022-12-20T01:11:47;100607.84;;;10.85;52.97
46199;BME280;31928;52.104;10.030;2022-12-20T01:14:14;100604.13;;;10.86;53.04
46199;BME280;31928;52.104;10.030;2022-12-20T01:16:44;100615.69;;;10.87;52.92
46199;BME280;31928;52.104;10.030;2022-12-20T01:19:12;100612.78;;;10.88;52.75
46199;BME280;31928;52.104;10.030;2022-12-20T01:21:39;100617.34;;;10.88;52.77
46199;BME280;31928;52.104;10.030;2022-12-20T01:24:10;100612.78;;;10.88;53.14
46199;BME280;31928;52.104;10.030;2022-12-20T01:26:36;100616.09;;;10.90;53.09
46199;BME280;31928;52.104;10.030;2022-12-20T01:29:03;100616.09;;;10.90;52.94
46199;BME280;31928;52.104;10.030;2022-12-20T01:31:29;100613.41;;;10.90;53.01
46199;BME280;31928;52.104;10.030;2022-12-20T01:33:57;100614.00;;;10.92;53.19
46199;BME280;31928;52.104;10.030;2022-12-20T01:36:25;100627.41;;;10.92;53.17
46199;BME280;31928;52.104;10.030;2022-12-20T01:38:55;100621.03;;;10.93;53.23
46199;BME280;31928;52.104;10.030;2022-12-20T01:41:22;100618.13;;;10.95;52.89
46199;BME280;31928;52.104;10.030;2022-12-20T01:43:52;100613.63;;;10.95;53.23
46199;BME280;31928;52.104;10.030;2022-12-20T01:46:20;100594.63;;;10.97;52.98
46199;BME280;31928;52.104;10.030;2022-12-20T01:48:52;100586.38;;;10.98;52.87
46199;BME280;31928;52.104;10.030;2022-12-20T01:51:19;100591.50;;;11.00;52.84
46199;BME280;31928;52.104;10.030;2022-12-20T01:53:46;100582.66;;;10.99;52.86
46199;BME280;31928;52.104;10.030;2022-12-20T01:56:15;100594.19;;;11.00;53.25
46199;BME280;31928;52.104;10.030;2022-12-20T01:58:41;100587.00;;;11.00;53.00
46199;BME280;31928;52.104;10.030;2022-12-20T02:01:10;100578.72;;;11.02;53.23
46199;BME280;31928;52.104;10.030;2022-12-20T02:03:36;100590.28;;;11.02;52.96
46199;BME280;31928;52.104;10.030;2022-12-20T02:06:16;100583.88;;;11.03;53.28
46199;BME280;31928;52.104;10.030;2022-12-20T02:08:43;100582.84;;;11.04;52.93
46199;BME280;31928;52.104;10.030;2022-12-20T02:16:03;100573.94;;;11.10;53.40
46199;BME280;31928;52.104;10.030;2022-12-20T02:18:38;100574.78;;;11.11;53.45
46199;BME280;31928;52.104;10.030;2022-12-20T02:24:07;100588.38;;;11.16;53.34
46199;BME280;31928;52.104;10.030;2022-12-20T02:31:42;100579.25;;;11.23;53.08
46199;BME280;31928;52.104;10.030;2022-12-20T02:34:09;100587.13;;;11.25;53.36
46199;BME280;31928;52.104;10.030;2022-12-20T02:36:40;100579.66;;;11.27;53.23
46199;BME280;31928;52.104;10.030;2022-12-20T02:39:07;100585.88;;;11.27;53.35
46199;BME280;31928;52.104;10.030;2022-12-20T02:41:36;100588.13;;;11.30;53.37
46199;BME280;31928;52.104;10.030;2022-12-20T02:44:05;100581.72;;;11.31;53.07
46199;BME280;31928;52.104;10.030;2022-12-20T02:46:52;100583.34;;;11.32;53.27
46199;BME280;31928;52.104;10.030;2022-12-20T02:49:19;100585.00;;;11.33;53.32
46199;BME280;31928;52.104;10.030;2022-12-20T02:51:48;100575.13;;;11.34;53.26
46199;BME280;31928;52.104;10.030;2022-12-20T02:54:17;100577.81;;;11.34;53.00
46199;BME280;31928;52.104;10.030;2022-12-20T02:56:45;100570.56;;;11.34;53.09
46199;BME280;31928;52.104;10.030;2022-12-20T02:59:14;100561.47;;;11.35;53.29
46199;BME280;31928;52.104;10.030;2022-12-20T03:01:44;100565.78;;;11.36;52.95
46199;BME280;31928;52.104;10.030;2022-12-20T03:04:12;100562.06;;;11.37;53.21
46199;BME280;31928;52.104;10.030;2022-12-20T03:06:38;100561.84;;;11.38;52.93
46199;BME280;31928;52.104;10.030;2022-12-20T03:09:20;100553.63;;;11.40;53.23
46199;BME280;31928;52.104;10.030;2022-12-20T03:11:46;100552.78;;;11.39;53.10
46199;BME280;31928;52.104;10.030;2022-12-20T03:14:12;100562.25;;;11.42;53.06
46199;BME280;31928;52.104;10.030;2022-12-20T03:16:39;100556.91;;;11.42;53.21
46199;BME280;31928;52.104;10.030;2022-12-20T03:19:05;100555.88;;;11.43;53.24
46199;BME280;31928;52.104;10.030;2022-12-20T03:21:32;100552.75;;;11.46;53.32
46199;BME280;31928;52.104;10.030;2022-12-20T03:23:58;100545.72;;;11.45;53.28
46199;BME280;31928;52.104;10.030;2022-12-20T03:26:24;100525.09;;;11.45;53.15
46199;BME280;31928;52.104;10.030;2022-12-20T03:28:51;100506.88;;;11.47;53.15
46199;BME280;31928;52.104;10.030;2022-12-20T03:31:17;100504.00;;;11.49;53.39
46199;BME280;31928;52.104;10.030;2022-12-20T03:33:44;100513.72;;;11.50;53.42
46199;BME280;31928;52.104;10.030;2022-12-20T03:36:10;100522.63;;;11.50;53.30
46199;BME280;31928;52.104;10.030;2022-12-20T03:38:37;100517.03;;;11.52;53.42
46199;BME280;31928;52.104;10.030;2022-12-20T03:41:03;100508.97;;;11.52;53.23
46199;BME280;31928;52.104;10.030;2022-12-20T03:43:29;100512.25;;;11.54;53.42
46199;BME280;31928;52.104;10.030;2022-12-20T03:45:56;100508.53;;;11.55;52.95
46199;BME280;31928;52.104;10.030;2022-12-20T03:48:22;100524.63;;;11.55;53.52
46199;BME280;31928;52.104;10.030;2022-12-20T03:50:48;100514.53;;;11.57;53.11
46199;BME280;31928;52.104;10.030;2022-12-20T03:53:15;100516.16;;;11.58;53.27
46199;BME280;31928;52.104;10.030;2022-12-20T03:55:41;100508.94;;;11.58;53.45
46199;BME280;31928;52.104;10.030;2022-12-20T03:58:10;100526.69;;;11.59;53.21
46199;BME280;31928;52.104;10.030;2022-12-20T04:00:37;100527.50;;;11.60;53.36
46199;BME280;31928;52.104;10.030;2022-12-20T04:03:05;100520.06;;;11.62;53.39
46199;BME280;31928;52.104;10.030;2022-12-20T04:05:31;100521.69;;;11.63;52.97
46199;BME280;31928;52.104;10.030;2022-12-20T04:07:58;100536.78;;;11.64;53.48
46199;BME280;31928;52.104;10.030;2022-12-20T04:10:24;100518.41;;;11.61;53.45
46199;BME280;31928;52.104;10.030;2022-12-20T04:12:50;100503.53;;;11.65;53.42
46199;BME280;31928;52.104;10.030;2022-12-20T04:15:17;100478.72;;;11.63;53.84
46199;BME280;31928;52.104;10.030;2022-12-20T04:17:43;100478.72;;;11.63;53.70
46199;BME280;31928;52.104;10.030;2022-12-20T04:20:15;100470.50;;;11.64;53.84
46199;BME280;31928;52.104;10.030;2022-12-20T04:22:48;100462.22;;;11.66;53.41
46199;BME280;31928;52.104;10.030;2022-12-20T04:25:15;100476.66;;;11.65;53.69
46199;BME280;31928;52.104;10.030;2022-12-20T04:27:44;100486.16;;;11.67;53.36
46199;BME280;31928;52.104;10.030;2022-12-20T04:30:11;100473.75;;;11.66;53.77
46199;BME280;31928;52.104;10.030;2022-12-20T04:32:38;100486.38;;;11.66;53.67
46199;BME280;31928;52.104;10.030;2022-12-20T04:35:04;100488.66;;;11.62;54.63
46199;BME280;31928;52.104;10.030;2022-12-20T04:37:31;100492.56;;;11.66;54.17
46199;BME280;31928;52.104;10.030;2022-12-20T04:39:57;100493.38;;;11.67;54.40
46199;BME280;31928;52.104;10.030;2022-12-20T04:42:24;100513.81;;;11.68;54.50
46199;BME280;31928;52.104;10.030;2022-12-20T04:44:50;100488.63;;;11.69;53.88
46199;BME280;31928;52.104;10.030;2022-12-20T04:47:17;100538.16;;;11.73;53.58
46199;BME280;31928;52.104;10.030;2022-12-20T04:49:43;100516.69;;;11.73;54.16
46199;BME280;31928;52.104;10.030;2022-12-20T04:52:10;100508.63;;;11.73;53.94
46199;BME280;31928;52.104;10.030;2022-12-20T04:54:55;100485.66;;;11.77;54.11
46199;BME280;31928;52.104;10.030;2022-12-20T04:57:21;100484.41;;;11.79;53.96
46199;BME280;31928;52.104;10.030;2022-12-20T04:59:47;100485.25;;;11.80;53.70
46199;BME280;31928;52.104;10.030;2022-12-20T05:02:14;100485.84;;;11.82;53.47
46199;BME280;31928;52.104;10.030;2022-12-20T05:04:41;100481.09;;;11.84;53.49
46199;BME280;31928;52.104;10.030;2022-12-20T05:07:07;100507.94;;;11.84;53.96
46199;BME280;31928;52.104;10.030;2022-12-20T05:09:33;100519.94;;;11.81;54.04
46199;BME280;31928;52.104;10.030;2022-12-20T05:12:00;100502.34;;;11.85;54.17
46199;BME280;31928;52.104;10.030;2022-12-20T05:14:26;100490.34;;;11.88;53.66
46199;BME280;31928;52.104;10.030;2022-12-20T05:16:53;100482.88;;;11.90;53.84
46199;BME280;31928;52.104;10.030;2022-12-20T05:19:19;100457.03;;;11.89;54.57
46199;BME280;31928;52.104;10.030;2022-12-20T05:21:45;100507.22;;;11.95;54.18
46199;BME280;31928;52.104;10.030;2022-12-20T05:24:31;100479.91;;;11.98;54.27
46199;BME280;31928;52.104;10.030;2022-12-20T05:27:16;100490.25;;;12.00;54.34
46199;BME280;31928;52.104;10.030;2022-12-20T05:29:42;100466.41;;;12.04;54.38
46199;BME280;31928;52.104;10.030;2022-12-20T05:32:08;100461.88;;;12.04;54.35
46199;BME280;31928;52.104;10.030;2022-12-20T05:34:35;100472.63;;;12.04;54.59
46199;BME280;31928;52.104;10.030;2022-12-20T05:37:01;100475.50;;;12.09;53.77
46199;BME280;31928;52.104;10.030;2022-12-20T05:39:28;100473.63;;;12.10;54.07
46199;BME280;31928;52.104;10.030;2022-12-20T05:41:54;100464.28;;;12.12;54.08
46199;BME280;31928;52.104;10.030;2022-12-20T05:44:21;100478.13;;;12.16;53.80
46199;BME280;31928;52.104;10.030;2022-12-20T05:46:47;100443.19;;;12.16;54.04
46199;BME280;31928;52.104;10.030;2022-12-20T05:49:14;100457.22;;;12.18;53.90
46199;BME280;31928;52.104;10.030;2022-12-20T05:51:40;100460.13;;;12.16;54.33
46199;BME280;31928;52.104;10.030;2022-12-20T05:54:09;100486.41;;;12.14;54.64
46199;BME280;31928;52.104;10.030;2022-12-20T05:56:39;100447.31;;;12.18;54.29
46199;BME280;31928;52.104;10.030;2022-12-20T05:59:07;100441.00;;;12.24;54.17
46199;BME280;31928;52.104;10.030;2022-12-20T06:01:34;100427.34;;;12.26;53.77
46199;BME280;31928;52.104;10.030;2022-12-20T06:04:02;100428.72;;;12.17;55.04
46199;BME280;31928;52.104;10.030;2022-12-20T06:06:31;100443.13;;;12.22;54.74
46199;BME280;31928;52.104;10.030;2022-12-20T06:08:57;100421.78;;;12.27;54.37
46199;BME280;31928;52.104;10.030;2022-12-20T06:11:23;100429.84;;;12.27;54.24
46199;BME280;31928;52.104;10.030;2022-12-20T06:13:55;100429.38;;;12.30;53.78
46199;BME280;31928;52.104;10.030;2022-12-20T06:16:22;100452.16;;;12.28;54.09
46199;BME280;31928;52.104;10.030;2022-12-20T06:18:50;100420.94;;;12.27;54.83
46199;BME280;31928;52.104;10.030;2022-12-20T06:21:18;100445.53;;;12.30;54.32
46199;BME280;31928;52.104;10.030;2022-12-20T06:23:45;100445.91;;;12.34;54.20
46199;BME280;31928;52.104;10.030;2022-12-20T06:26:11;100439.09;;;12.31;54.24
46199;BME280;31928;52.104;10.030;2022-12-20T06:28:38;100436.19;;;12.33;54.47
46199;BME280;31928;52.104;10.030;2022-12-20T06:31:11;100438.44;;;12.36;53.92
46199;BME280;31928;52.104;10.030;2022-12-20T06:33:37;100462.38;;;12.37;54.47
46199;BME280;31928;52.104;10.030;2022-12-20T06:36:04;100447.91;;;12.38;54.38
46199;BME280;31928;52.104;10.030;2022-12-20T06:38:30;100472.13;;;12.38;54.83
46199;BME280;31928;52.104;10.030;2022-12-20T06:40:56;100467.78;;;12.37;55.12
46199;BME280;31928;52.104;10.030;2022-12-20T06:43:23;100471.88;;;12.40;54.75
46199;BME280;31928;52.104;10.030;2022-12-20T06:45:49;100440.47;;;12.40;54.73
46199;BME280;31928;52.104;10.030;2022-12-20T06:48:16;100450.75;;;12.43;54.46
46199;BME280;31928;52.104;10.030;2022-12-20T06:50:42;100447.84;;;12.45;54.23
46199;BME280;31928;52.104;10.030;2022-12-20T06:53:08;100443.09;;;12.47;54.37
46199;BME280;31928;52.104;10.030;2022-12-20T06:55:35;100435.00;;;12.47;54.44
46199;BME280;31928;52.104;10.030;2022-12-20T06:58:02;100428.22;;;12.44;54.61
46199;BME280;31928;52.104;10.030;2022-12-20T07:00:28;100432.91;;;12.49;54.70
46199;BME280;31928;52.104;10.030;2022-12-20T07:02:55;100427.53;;;12.49;54.55
46199;BME280;31928;52.104;10.030;2022-12-20T07:05:21;100435.38;;;12.50;54.43
46199;BME280;31928;52.104;10.030;2022-12-20T07:07:48;100431.63;;;12.51;54.61
46199;BME280;31928;52.104;10.030;2022-12-20T07:10:15;100453.16;;;12.51;54.52
46199;BME280;31928;52.104;10.030;2022-12-20T07:12:41;100432.47;;;12.52;54.16
46199;BME280;31928;52.104;10.030;2022-12-20T07:15:13;100431.22;;;12.54;53.86
46199;BME280;31928;52.104;10.030;2022-12-20T07:17:40;100446.50;;;12.54;54.36
46199;BME280;31928;52.104;10.030;2022-12-20T07:20:06;100426.41;;;12.56;53.82
46199;BME280;31928;52.104;10.030;2022-12-20T07:22:53;100433.44;;;12.57;54.31
46199;BME280;31928;52.104;10.030;2022-12-20T07:25:19;100420.56;;;12.59;54.15
46199;BME280;31928;52.104;10.030;2022-12-20T07:27:49;100425.16;;;12.58;54.08
46199;BME280;31928;52.104;10.030;2022-12-20T07:30:16;100445.41;;;12.61;54.19
46199;BME280;31928;52.104;10.030;2022-12-20T07:32:42;100448.97;;;12.55;54.47
46199;BME280;31928;52.104;10.030;2022-12-20T07:35:09;100427.38;;;12.61;54.03
46199;BME280;31928;52.104;10.030;2022-12-20T07:37:36;100429.25;;;12.61;54.48
46199;BME280;31928;52.104;10.030;2022-12-20T07:40:03;100443.28;;;12.63;54.44
46199;BME280;31928;52.104;10.030;2022-12-20T07:42:30;100440.59;;;12.63;54.06
46199;BME280;31928;52.104;10.030;2022-12-20T07:45:04;100433.59;;;12.62;54.42
46199;BME280;31928;52.104;10.030;2022-12-20T07:47:30;100425.31;;;12.63;54.67
46199;BME280;31928;52.104;10.030;2022-12-20T07:49:57;100424.91;;;12.60;54.84
46199;BME280;31928;52.104;10.030;2022-12-20T07:52:23;100430.53;;;12.58;55.08
46199;BME280;31928;52.104;10.030;2022-12-20T07:54:55;100449.75;;;12.62;55.15
46199;BME280;31928;52.104;10.030;2022-12-20T07:57:33;100441.22;;;12.65;54.49
46199;BME280;31928;52.104;10.030;2022-12-20T08:00:02;100435.69;;;12.60;55.46
46199;BME280;31928;52.104;10.030;2022-12-20T08:02:30;100425.69;;;12.67;54.32
46199;BME280;31928;52.104;10.030;2022-12-20T08:04:58;100430.91;;;12.62;54.48
46199;BME280;31928;52.104;10.030;2022-12-20T08:07:25;100455.03;;;12.68;54.33
46199;BME280;31928;52.104;10.030;2022-12-20T08:09:53;100431.06;;;12.67;54.48
46199;BME280;31928;52.104;10.030;2022-12-20T08:12:19;100417.47;;;12.62;55.04
46199;BME280;31928;52.104;10.030;2022-12-20T08:14:46;100412.25;;;12.67;54.42
46199;BME280;31928;52.104;10.030;2022-12-20T08:17:13;100418.44;;;12.67;54.74
46199;BME280;31928;52.104;10.030;2022-12-20T08:19:40;100422.75;;;12.68;55.03
46199;BME280;31928;52.104;10.030;2022-12-20T08:22:06;100412.81;;;12.69;55.30
46199;BME280;31928;52.104;10.030;2022-12-20T08:24:32;100416.94;;;12.71;55.17
46199;BME280;31928;52.104;10.030;2022-12-20T08:26:59;100392.88;;;12.76;54.54
46199;BME280;31928;52.104;10.030;2022-12-20T08:29:26;100379.19;;;12.78;54.55
46199;BME280;31928;52.104;10.030;2022-12-20T08:31:52;100418.03;;;12.82;54.56
46199;BME280;31928;52.104;10.030;2022-12-20T08:34:18;100383.66;;;12.84;54.22
46199;BME280;31928;52.104;10.030;2022-12-20T08:36:45;100380.13;;;12.83;54.55
46199;BME280;31928;52.104;10.030;2022-12-20T08:39:11;100379.09;;;12.84;54.80
46199;BME280;31928;52.104;10.030;2022-12-20T08:41:38;100388.16;;;12.90;54.97
46199;BME280;31928;52.104;10.030;2022-12-20T08:44:04;100383.97;;;12.94;54.53
46199;BME280;31928;52.104;10.030;2022-12-20T08:46:31;100390.56;;;12.98;54.92
46199;BME280;31928;52.104;10.030;2022-12-20T08:48:58;100390.22;;;13.06;54.55
46199;BME280;31928;52.104;10.030;2022-12-20T08:51:24;100393.97;;;13.05;54.43
46199;BME280;31928;52.104;10.030;2022-12-20T08:53:51;100388.72;;;13.10;54.54
46199;BME280;31928;52.104;10.030;2022-12-20T08:56:17;100390.94;;;13.13;54.15
46199;BME280;31928;52.104;10.030;2022-12-20T08:58:45;100386.59;;;13.12;54.14
46199;BME280;31928;52.104;10.030;2022-12-20T09:01:15;100385.31;;;13.14;54.11
46199;BME280;31928;52.104;10.030;2022-12-20T09:03:42;100363.47;;;13.11;54.20
46199;BME280;31928;52.104;10.030;2022-12-20T09:06:14;100402.75;;;13.12;54.06
46199;BME280;31928;52.104;10.030;2022-12-20T09:08:41;100365.06;;;13.12;53.93
46199;BME280;31928;52.104;10.030;2022-12-20T09:11:08;100389.19;;;13.07;54.22
46199;BME280;31928;52.104;10.030;2022-12-20T09:13:35;100374.66;;;13.08;53.78
46199;BME280;31928;52.104;10.030;2022-12-20T09:16:09;100380.88;;;13.08;53.81
46199;BME280;31928;52.104;10.030;2022-12-20T09:18:36;100401.56;;;13.08;53.69
46199;BME280;31928;52.104;10.030;2022-12-20T09:21:03;100383.81;;;13.07;53.78
46199;BME280;31928;52.104;10.030;2022-12-20T09:23:30;100390.81;;;13.08;53.60
46199;BME280;31928;52.104;10.030;2022-12-20T09:26:00;100391.66;;;13.08;53.77
46199;BME280;31928;52.104;10.030;2022-12-20T09:28:27;100383.81;;;13.07;53.66
46199;BME280;31928;52.104;10.030;2022-12-20T09:30:56;100385.19;;;13.09;53.65
46199;BME280;31928;52.104;10.030;2022-12-20T09:33:22;100389.19;;;13.07;53.75
46199;BME280;31928;52.104;10.030;2022-12-20T09:35:49;100389.19;;;13.07;53.80
46199;BME280;31928;52.104;10.030;2022-12-20T09:38:15;100392.44;;;13.09;53.61
46199;BME280;31928;52.104;10.030;2022-12-20T09:40:52;100381.69;;;13.09;53.51
46199;BME280;31928;52.104;10.030;2022-12-20T09:43:18;100391.28;;;13.05;53.64
46199;BME280;31928;52.104;10.030;2022-12-20T09:45:46;100380.88;;;13.08;53.87
46199;BME280;31928;52.104;10.030;2022-12-20T09:48:24;100392.44;;;13.09;53.64
46199;BME280;31928;52.104;10.030;2022-12-20T09:53:40;100379.59;;;13.11;53.94
46199;BME280;31928;52.104;10.030;2022-12-20T09:58:55;100381.03;;;13.13;53.59
46199;BME280;31928;52.104;10.030;2022-12-20T10:01:23;100369.19;;;13.14;53.73
46199;BME280;31928;52.104;10.030;2022-12-20T10:03:53;100364.63;;;13.15;53.59
46199;BME280;31928;52.104;10.030;2022-12-20T10:09:09;100361.25;;;13.19;53.74
46199;BME280;31928;52.104;10.030;2022-12-20T10:16:45;100350.97;;;13.27;53.79
46199;BME280;31928;52.104;10.030;2022-12-20T10:25:00;100324.19;;;13.32;53.46
46199;BME280;31928;52.104;10.030;2022-12-20T10:27:27;100315.63;;;13.35;53.68
46199;BME280;31928;52.104;10.030;2022-12-20T10:29:54;100316.19;;;13.37;53.65
46199;BME280;31928;52.104;10.030;2022-12-20T10:32:21;100312.47;;;13.38;53.66
46199;BME280;31928;52.104;10.030;2022-12-20T10:34:56;100319.88;;;13.43;53.51
46199;BME280;31928;52.104;10.030;2022-12-20T10:37:23;100305.34;;;13.44;53.34
46199;BME280;31928;52.104;10.030;2022-12-20T10:39:50;100305.44;;;13.49;53.52
46199;BME280;31928;52.104;10.030;2022-12-20T10:42:34;100317.19;;;13.54;53.40
46199;BME280;31928;52.104;10.030;2022-12-20T10:45:01;100297.25;;;13.55;53.48
46199;BME280;31928;52.104;10.030;2022-12-20T10:47:32;100332.63;;;13.59;53.35
46199;BME280;31928;52.104;10.030;2022-12-20T10:50:22;100285.44;;;13.68;53.54
46199;BME280;31928;52.104;10.030;2022-12-20T10:55:37;100285.56;;;13.73;53.26
46199;BME280;31928;52.104;10.030;2022-12-20T11:00:35;100281.69;;;13.80;52.88
46199;BME280;31928;52.104;10.030;2022-12-20T11:03:04;100281.94;;;13.79;52.89
46199;BME280;31928;52.104;10.030;2022-12-20T11:05:33;100289.91;;;13.85;53.02
46199;BME280;31928;52.104;10.030;2022-12-20T11:08:06;100271.03;;;13.85;53.08
46199;BME280;31928;52.104;10.030;2022-12-20T11:11:10;100277.59;;;13.89;52.91
46199;BME280;31928;52.104;10.030;2022-12-20T11:13:38;100277.59;;;13.89;52.97
46199;BME280;31928;52.104;10.030;2022-12-20T11:16:05;100268.41;;;13.90;53.12
46199;BME280;31928;52.104;10.030;2022-12-20T11:21:21;100272.88;;;13.96;52.89
46199;BME280;31928;52.104;10.030;2022-12-20T11:37:03;100273.31;;;14.27;52.54
46199;BME280;31928;52.104;10.030;2022-12-20T11:42:28;100268.84;;;14.33;52.41
46199;BME280;31928;52.104;10.030;2022-12-20T11:45:14;100272.94;;;14.35;52.65
46199;BME280;31928;52.104;10.030;2022-12-20T11:50:28;100258.25;;;14.42;52.40
46199;BME280;31928;52.104;10.030;2022-12-20T11:53:07;100270.34;;;14.40;52.07
46199;BME280;31928;52.104;10.030;2022-12-20T11:55:36;100268.81;;;14.44;52.13
46199;BME280;31928;52.104;10.030;2022-12-20T12:01:07;100273.88;;;14.41;51.99
46199;BME280;31928;52.104;10.030;2022-12-20T12:03:34;100259.44;;;14.46;52.23
46199;BME280;31928;52.104;10.030;2022-12-20T12:06:15;100233.25;;;14.47;51.95
46199;BME280;31928;52.104;10.030;2022-12-20T12:08:51;100236.53;;;14.49;52.20
46199;BME280;31928;52.104;10.030;2022-12-20T12:14:05;100230.31;;;14.48;52.37
46199;BME280;31928;52.104;10.030;2022-12-20T12:16:36;100240.44;;;14.42;51.73
46199;BME280;31928;52.104;10.030;2022-12-20T12:19:07;100241.59;;;14.45;51.84
46199;BME280;31928;52.104;10.030;2022-12-20T12:24:21;100236.53;;;14.49;52.02
46199;BME280;31928;52.104;10.030;2022-12-20T12:26:50;100221.16;;;14.49;52.04
46199;BME280;31928;52.104;10.030;2022-12-20T12:29:17;100217.41;;;14.50;51.91
46199;BME280;31928;52.104;10.030;2022-12-20T12:45:05;100211.03;;;14.56;52.13
46199;BME280;31928;52.104;10.030;2022-12-20T12:50:00;100196.59;;;14.62;51.87
46199;BME280;31928;52.104;10.030;2022-12-20T12:52:28;100188.50;;;14.62;51.96
46199;BME280;31928;52.104;10.030;2022-12-20T12:55:01;100202.53;;;14.64;52.10
46199;BME280;31928;52.104;10.030;2022-12-20T12:57:28;100193.41;;;14.65;51.71
46199;BME280;31928;52.104;10.030;2022-12-20T12:59:54;100192.34;;;14.66;51.71
46199;BME280;31928;52.104;10.030;2022-12-20T13:02:23;100204.53;;;14.69;51.89
46199;BME280;31928;52.104;10.030;2022-12-20T13:09:59;100170.25;;;14.69;51.92
46199;BME280;31928;52.104;10.030;2022-12-20T13:15:10;100181.56;;;14.66;51.79
46199;BME280;31928;52.104;10.030;2022-12-20T13:17:49;100167.25;;;14.66;51.18
46199;BME280;31928;52.104;10.030;2022-12-20T13:20:17;100175.09;;;14.67;51.60
46199;BME280;31928;52.104;10.030;2022-12-20T13:25:29;100173.44;;;14.66;51.22
46199;BME280;31928;52.104;10.030;2022-12-20T13:33:38;100144.81;;;14.65;51.57
46199;BME280;31928;52.104;10.030;2022-12-20T13:41:11;100150.81;;;14.67;51.31
46199;BME280;31928;52.104;10.030;2022-12-20T13:43:43;100155.47;;;14.72;51.70
46199;BME280;31928;52.104;10.030;2022-12-20T13:51:03;100156.78;;;14.69;51.09
46199;BME280;31928;52.104;10.030;2022-12-20T13:53:30;100167.91;;;14.73;51.01
46199;BME280;31928;52.104;10.030;2022-12-20T13:55:57;100175.75;;;14.74;51.44
46199;BME280;31928;52.104;10.030;2022-12-20T13:58:24;100168.72;;;14.73;51.24
46199;BME280;31928;52.104;10.030;2022-12-20T14:00:52;100180.09;;;14.75;51.06
46199;BME280;31928;52.104;10.030;2022-12-20T14:05:46;100160.06;;;14.71;50.69
46199;BME280;31928;52.104;10.030;2022-12-20T14:08:16;100172.16;;;14.69;50.97
46199;BME280;31928;52.104;10.030;2022-12-20T14:10:44;100176.81;;;14.73;51.42
46199;BME280;31928;52.104;10.030;2022-12-20T14:13:23;100170.25;;;14.69;50.69
46199;BME280;31928;52.104;10.030;2022-12-20T14:15:50;100184.00;;;14.68;51.03
46199;BME280;31928;52.104;10.030;2022-12-20T14:18:19;100169.69;;;14.67;50.74
46199;BME280;31928;52.104;10.030;2022-12-20T14:20:49;100162.16;;;14.69;50.74
46199;BME280;31928;52.104;10.030;2022-12-20T14:23:18;100149.75;;;14.68;51.00
46199;BME280;31928;52.104;10.030;2022-12-20T14:31:00;100144.91;;;14.70;50.93
46199;BME280;31928;52.104;10.030;2022-12-20T14:36:06;100142.47;;;14.69;50.82
46199;BME280;31928;52.104;10.030;2022-12-20T14:38:32;100144.38;;;14.68;51.17
46199;BME280;31928;52.104;10.030;2022-12-20T14:40:59;100147.53;;;14.65;50.86
46199;BME280;31928;52.104;10.030;2022-12-20T14:43:32;100144.13;;;14.70;51.18
46199;BME280;31928;52.104;10.030;2022-12-20T14:48:41;100134.97;;;14.71;50.97